createdAt,value
2018-09-25T00:00:14.548Z,64.50
2018-09-25T00:02:48.656Z,64.50
2018-09-25T00:05:21.836Z,65.00
2018-09-25T00:07:54.972Z,65.10
2018-09-25T00:10:28.129Z,64.50
2018-09-25T00:13:02.855Z,64.40
2018-09-25T00:15:36.871Z,64.60
2018-09-25T00:18:09.937Z,64.90
2018-09-25T00:20:43.098Z,64.50
2018-09-25T00:23:16.195Z,64.50
2018-09-25T00:25:49.340Z,64.90
2018-09-25T00:28:22.430Z,64.90
2018-09-25T00:30:55.535Z,64.50
2018-09-25T00:33:28.651Z,64.50
2018-09-25T00:36:02.757Z,64.70
2018-09-25T00:38:36.932Z,64.50
2018-09-25T00:41:10.028Z,64.50
2018-09-25T00:43:43.172Z,64.60
2018-09-25T00:46:16.236Z,64.30
2018-09-25T00:48:49.376Z,64.40
2018-09-25T00:51:22.555Z,64.40
2018-09-25T00:53:56.440Z,64.50
2018-09-25T00:56:30.330Z,64.40
2018-09-25T00:59:04.219Z,64.70
2018-09-25T01:01:37.319Z,64.40
2018-09-25T01:04:11.423Z,64.30
2018-09-25T01:06:44.572Z,64.30
2018-09-25T01:09:17.736Z,64.60
2018-09-25T01:11:50.903Z,64.60
2018-09-25T01:14:25.075Z,64.90
2018-09-25T01:16:58.903Z,64.70
2018-09-25T01:19:32.963Z,64.70
2018-09-25T01:22:06.810Z,64.30
2018-09-25T01:24:42.032Z,64.40
2018-09-25T01:27:15.915Z,64.60
2018-09-25T01:29:49.011Z,64.50
2018-09-25T01:32:22.830Z,64.60
2018-09-25T01:34:55.944Z,65.20
2018-09-25T01:37:29.004Z,64.50
2018-09-25T01:40:03.056Z,64.40
2018-09-25T01:42:36.274Z,64.30
2018-09-25T01:45:09.457Z,64.30
2018-09-25T01:47:43.376Z,64.80
2018-09-25T01:50:16.587Z,64.30
2018-09-25T01:52:50.456Z,64.30
2018-09-25T01:55:25.858Z,64.40
2018-09-25T01:57:59.859Z,64.30
2018-09-25T02:00:34.776Z,64.30
2018-09-25T02:03:08.691Z,64.60
2018-09-25T02:05:42.625Z,64.30
2018-09-25T02:08:16.501Z,64.30
2018-09-25T02:10:50.796Z,64.40
2018-09-25T02:13:23.932Z,64.40
2018-09-25T02:15:57.791Z,64.40
2018-09-25T02:18:31.738Z,64.30
2018-09-25T02:21:05.248Z,64.10
2018-09-25T02:23:38.343Z,64.20
2018-09-25T02:26:11.464Z,64.40
2018-09-25T02:28:44.545Z,64.50
2018-09-25T02:31:17.695Z,64.30
2018-09-25T02:33:51.535Z,64.20
2018-09-25T02:36:25.129Z,64.30
2018-09-25T02:38:59.321Z,64.10
2018-09-25T02:41:32.436Z,65.00
2018-09-25T02:44:06.256Z,64.30
2018-09-25T02:46:41.244Z,64.20
2018-09-25T02:49:14.464Z,64.40
2018-09-25T02:51:47.571Z,64.30
2018-09-25T02:54:21.666Z,64.10
2018-09-25T02:56:54.803Z,63.90
2018-09-25T02:59:28.679Z,64.10
2018-09-25T03:02:01.892Z,64.10
2018-09-25T03:04:35.731Z,64.70
2018-09-25T03:07:08.789Z,64.30
2018-09-25T03:09:41.903Z,64.50
2018-09-25T03:12:15.005Z,64.20
2018-09-25T03:14:48.943Z,64.00
2018-09-25T03:17:22.888Z,64.30
2018-09-25T03:19:56.751Z,64.70
2018-09-25T03:22:29.863Z,64.00
2018-09-25T03:25:03.707Z,64.70
2018-09-25T03:27:37.599Z,64.20
2018-09-25T03:30:11.284Z,64.00
2018-09-25T03:32:44.405Z,64.20
2018-09-25T03:35:17.472Z,64.30
2018-09-25T03:37:50.561Z,64.20
2018-09-25T03:40:24.350Z,64.50
2018-09-25T03:42:58.459Z,64.10
2018-09-25T03:45:32.424Z,64.20
2018-09-25T03:48:06.000Z,64.70
2018-09-25T03:50:40.173Z,63.90
2018-09-25T03:53:14.151Z,64.00
2018-09-25T03:55:48.076Z,63.90
2018-09-25T03:58:22.355Z,63.90
2018-09-25T04:00:56.629Z,63.80
2018-09-25T04:03:30.604Z,64.20
2018-09-25T04:06:05.181Z,63.90
2018-09-25T04:08:38.378Z,64.20
2018-09-25T04:11:12.317Z,64.20
2018-09-25T04:13:45.500Z,63.90
2018-09-25T04:16:18.580Z,63.90
2018-09-25T04:18:52.524Z,64.70
2018-09-25T04:21:25.668Z,64.50
2018-09-25T04:23:59.663Z,63.90
2018-09-25T04:26:33.613Z,63.90
2018-09-25T04:29:06.724Z,63.60
2018-09-25T04:31:41.593Z,63.90
2018-09-25T04:34:15.483Z,64.00
2018-09-25T04:36:49.356Z,63.80
2018-09-25T04:39:22.548Z,63.90
2018-09-25T04:41:56.409Z,63.80
2018-09-25T04:44:29.508Z,63.80
2018-09-25T04:47:02.617Z,63.80
2018-09-25T04:49:35.751Z,63.90
2018-09-25T04:52:09.724Z,63.80
2018-09-25T04:54:43.693Z,63.80
2018-09-25T04:57:16.821Z,64.20
2018-09-25T04:59:50.123Z,64.30
2018-09-25T05:02:24.956Z,64.40
2018-09-25T05:04:58.865Z,65.20
2018-09-25T05:07:33.214Z,65.10
2018-09-25T05:10:06.264Z,65.40
2018-09-25T05:12:39.380Z,65.40
2018-09-25T05:15:13.469Z,65.30
2018-09-25T05:17:46.568Z,65.30
2018-09-25T05:20:20.559Z,65.20
2018-09-25T05:22:53.695Z,65.00
2018-09-25T05:25:27.880Z,65.00
2018-09-25T05:28:01.604Z,65.00
2018-09-25T05:30:34.863Z,64.90
2018-09-25T05:33:10.252Z,64.90
2018-09-25T05:35:44.407Z,64.70
2018-09-25T05:38:17.711Z,64.80
2018-09-25T05:40:51.543Z,65.00
2018-09-25T05:43:25.665Z,65.00
2018-09-25T05:45:59.560Z,65.00
2018-09-25T05:48:34.326Z,65.00
2018-09-25T05:51:07.347Z,65.10
2018-09-25T05:53:41.684Z,65.10
2018-09-25T05:56:14.867Z,65.20
2018-09-25T05:58:48.700Z,65.30
2018-09-25T06:01:22.559Z,65.30
2018-09-25T06:03:56.747Z,65.40
2018-09-25T06:06:30.633Z,65.30
2018-09-25T06:09:03.735Z,65.40
2018-09-25T06:11:37.552Z,65.30
2018-09-25T06:14:11.439Z,65.30
2018-09-25T06:16:45.624Z,65.30
2018-09-25T06:19:18.815Z,65.30
2018-09-25T06:21:52.994Z,65.40
2018-09-25T06:24:26.845Z,65.40
2018-09-25T06:27:02.020Z,65.40
2018-09-25T06:29:35.875Z,65.40
2018-09-25T06:32:10.075Z,65.40
2018-09-25T06:34:44.277Z,65.40
2018-09-25T06:37:18.287Z,65.30
2018-09-25T06:39:52.446Z,65.30
2018-09-25T06:42:25.748Z,65.30
2018-09-25T06:44:59.145Z,65.60
2018-09-25T06:47:33.117Z,65.20
2018-09-25T06:50:07.352Z,65.30
2018-09-25T06:52:41.180Z,65.40
2018-09-25T06:55:14.222Z,65.20
2018-09-25T06:57:48.136Z,65.00
2018-09-25T07:00:22.040Z,64.90
2018-09-25T07:02:56.168Z,64.70
2018-09-25T07:05:29.289Z,64.80
2018-09-25T07:08:02.586Z,64.80
2018-09-25T07:10:35.926Z,65.00
2018-09-25T07:13:09.183Z,64.90
2018-09-25T07:15:43.188Z,65.10
2018-09-25T07:18:16.422Z,65.00
2018-09-25T07:20:49.618Z,65.00
2018-09-25T07:23:23.676Z,65.00
2018-09-25T07:25:56.865Z,65.00
2018-09-25T07:28:31.496Z,65.00
2018-09-25T07:31:05.427Z,65.00
2018-09-25T07:33:45.594Z,65.00
2018-09-25T07:36:18.675Z,65.10
2018-09-25T07:38:51.883Z,65.20
2018-09-25T07:41:25.060Z,65.20
2018-09-25T07:43:58.230Z,65.10
2018-09-25T07:46:31.376Z,65.40
2018-09-25T07:49:05.070Z,65.70
2018-09-25T07:51:38.179Z,65.00
2018-09-25T07:54:11.347Z,65.20
2018-09-25T07:56:44.436Z,65.10
2018-09-25T07:59:17.581Z,65.10
2018-09-25T08:01:50.716Z,65.20
2018-09-25T08:04:24.704Z,65.20
2018-09-25T08:06:57.796Z,65.80
2018-09-25T08:09:31.889Z,65.30
2018-09-25T08:12:05.040Z,65.20
2018-09-25T08:14:38.100Z,65.20
2018-09-25T08:17:11.136Z,65.30
2018-09-25T08:19:44.254Z,65.40
2018-09-25T08:22:17.430Z,65.30
2018-09-25T08:24:50.596Z,65.40
2018-09-25T08:27:23.707Z,65.40
2018-09-25T08:29:57.612Z,66.00
2018-09-25T08:32:30.740Z,65.30
2018-09-25T08:35:04.671Z,65.40
2018-09-25T08:37:38.869Z,65.30
2018-09-25T08:40:12.038Z,65.20
2018-09-25T08:42:45.303Z,65.40
2018-09-25T08:45:18.481Z,65.40
2018-09-25T08:47:51.709Z,65.40
2018-09-25T08:50:25.627Z,65.30
2018-09-25T08:52:58.784Z,65.90
2018-09-25T08:55:32.957Z,65.40
2018-09-25T08:58:06.088Z,65.40
2018-09-25T09:00:40.156Z,65.40
2018-09-25T09:03:13.224Z,65.40
2018-09-25T09:05:46.372Z,65.30
2018-09-25T09:08:20.306Z,65.80
2018-09-25T09:10:55.502Z,65.20
2018-09-25T09:13:29.736Z,65.00
2018-09-25T09:16:02.860Z,65.00
2018-09-25T09:18:35.976Z,65.10
2018-09-25T09:21:09.868Z,65.20
2018-09-25T09:23:43.070Z,65.10
2018-09-25T09:26:16.500Z,65.10
2018-09-25T09:28:50.712Z,65.10
2018-09-25T09:31:24.564Z,65.10
2018-09-25T09:33:57.871Z,65.20
2018-09-25T09:36:31.655Z,65.20
2018-09-25T09:39:04.804Z,65.20
2018-09-25T09:41:38.034Z,65.30
2018-09-25T09:44:12.201Z,65.40
2018-09-25T09:46:45.272Z,65.40
2018-09-25T09:49:18.424Z,65.30
2018-09-25T09:51:51.527Z,65.40
2018-09-25T09:54:25.319Z,65.30
2018-09-25T09:56:59.167Z,65.20
2018-09-25T09:59:34.542Z,65.20
2018-09-25T10:02:07.468Z,65.40
2018-09-25T10:04:41.804Z,65.40
2018-09-25T10:07:15.123Z,65.30
2018-09-25T10:09:49.211Z,65.30
2018-09-25T10:12:22.392Z,65.40
2018-09-25T10:14:55.500Z,65.20
2018-09-25T10:17:28.724Z,65.20
2018-09-25T10:20:01.884Z,65.30
2018-09-25T10:22:35.963Z,65.30
2018-09-25T10:25:09.284Z,65.30
2018-09-25T10:27:42.386Z,65.20
2018-09-25T10:30:15.519Z,65.30
2018-09-25T10:32:49.749Z,65.30
2018-09-25T10:35:22.919Z,65.30
2018-09-25T10:37:56.074Z,65.40
2018-09-25T10:40:30.052Z,65.50
2018-09-25T10:43:05.107Z,66.00
2018-09-25T10:45:38.335Z,65.40
2018-09-25T10:48:12.534Z,65.40
2018-09-25T10:50:45.770Z,65.50
2018-09-25T10:53:18.999Z,65.60
2018-09-25T10:55:52.300Z,65.50
2018-09-25T10:58:25.497Z,65.40
2018-09-25T11:00:58.611Z,65.30
2018-09-25T11:03:32.067Z,65.40
2018-09-25T11:06:05.424Z,65.40
2018-09-25T11:08:38.570Z,65.50
2018-09-25T11:11:12.405Z,65.40
2018-09-25T11:13:46.256Z,65.50
2018-09-25T11:16:20.500Z,65.50
2018-09-25T11:18:55.451Z,65.40
2018-09-25T11:21:29.372Z,65.50
2018-09-25T11:24:02.544Z,65.20
2018-09-25T11:26:35.813Z,65.40
2018-09-25T11:29:08.963Z,65.30
2018-09-25T11:31:42.096Z,65.30
2018-09-25T11:34:16.380Z,65.30
2018-09-25T11:36:50.432Z,65.00
2018-09-25T11:39:25.546Z,65.00
2018-09-25T11:41:59.827Z,65.00
2018-09-25T11:44:33.723Z,64.70
2018-09-25T11:47:07.721Z,64.70
2018-09-25T11:49:41.638Z,64.60
2018-09-25T11:52:15.716Z,64.60
2018-09-25T11:54:48.884Z,64.60
2018-09-25T11:57:21.972Z,64.60
2018-09-25T11:59:55.972Z,64.50
2018-09-25T12:02:29.227Z,64.40
2018-09-25T12:05:03.152Z,64.30
2018-09-25T12:07:37.488Z,64.50
2018-09-25T12:10:11.756Z,64.40
2018-09-25T12:12:44.886Z,64.40
2018-09-25T12:15:18.142Z,64.50
2018-09-25T12:17:51.195Z,64.60
2018-09-25T12:20:25.399Z,64.60
2018-09-25T12:22:59.531Z,64.60
2018-09-25T12:25:34.288Z,64.50
2018-09-25T12:28:08.445Z,65.20
2018-09-25T12:30:42.659Z,64.60
2018-09-25T12:33:16.513Z,64.70
2018-09-25T12:35:49.609Z,64.50
2018-09-25T12:38:22.653Z,64.60
2018-09-25T12:40:55.753Z,64.60
2018-09-25T12:43:28.905Z,64.70
2018-09-25T12:46:02.052Z,64.60
2018-09-25T12:48:35.179Z,64.70
2018-09-25T12:51:08.236Z,64.60
2018-09-25T12:53:41.351Z,64.50
2018-09-25T12:56:14.440Z,64.50
2018-09-25T12:58:47.556Z,65.20
2018-09-25T13:01:20.672Z,64.60
2018-09-25T13:03:53.851Z,64.50
2018-09-25T13:06:27.162Z,64.80
2018-09-25T13:09:00.273Z,64.70
2018-09-25T13:11:34.136Z,64.60
2018-09-25T13:14:07.304Z,64.60
2018-09-25T13:16:41.473Z,64.70
2018-09-25T13:19:14.565Z,64.70
2018-09-25T13:21:47.721Z,64.70
2018-09-25T13:24:20.764Z,64.70
2018-09-25T13:26:53.907Z,64.80
2018-09-25T13:29:27.947Z,64.80
2018-09-25T13:32:02.333Z,64.80
2018-09-25T13:34:36.668Z,64.60
2018-09-25T13:37:09.725Z,64.50
2018-09-25T13:39:43.832Z,64.50
2018-09-25T13:42:17.875Z,65.10
2018-09-25T13:44:52.149Z,64.50
2018-09-25T13:47:25.287Z,64.70
2018-09-25T13:49:59.407Z,64.80
2018-09-25T13:52:32.522Z,64.80
2018-09-25T13:55:05.723Z,64.60
2018-09-25T13:57:38.805Z,64.60
2018-09-25T14:00:11.955Z,64.80
2018-09-25T14:02:45.804Z,64.80
2018-09-25T14:05:19.656Z,64.40
2018-09-25T14:07:53.663Z,64.50
2018-09-25T14:10:27.590Z,64.90
2018-09-25T14:13:03.241Z,64.60
2018-09-25T14:15:37.508Z,64.50
2018-09-25T14:18:11.488Z,64.20
2018-09-25T14:20:45.823Z,63.80
2018-09-25T14:23:18.918Z,63.50
2018-09-25T14:25:52.906Z,63.40
2018-09-25T14:28:27.070Z,63.30
2018-09-25T14:31:01.719Z,63.00
2018-09-25T14:33:35.908Z,63.10
2018-09-25T14:36:10.188Z,63.10
2018-09-25T14:38:43.438Z,63.10
2018-09-25T14:41:17.612Z,62.30
2018-09-25T14:43:51.474Z,62.60
2018-09-25T14:46:25.658Z,62.10
2018-09-25T14:48:59.901Z,62.30
2018-09-25T14:51:34.936Z,61.90
2018-09-25T14:54:08.165Z,62.10
2018-09-25T14:56:42.428Z,62.50
2018-09-25T14:59:15.526Z,62.50
2018-09-25T15:01:48.674Z,62.70
2018-09-25T15:04:22.576Z,62.80
2018-09-25T15:06:55.823Z,62.90
2018-09-25T15:09:29.009Z,62.80
2018-09-25T15:12:03.293Z,62.90
2018-09-25T15:14:36.637Z,63.00
2018-09-25T15:17:09.753Z,62.90
2018-09-25T15:19:43.686Z,63.00
2018-09-25T15:22:17.195Z,62.90
2018-09-25T15:24:50.121Z,63.10
2018-09-25T15:27:23.347Z,63.20
2018-09-25T15:29:56.857Z,64.00
2018-09-25T15:32:30.027Z,63.30
2018-09-25T15:35:03.163Z,63.10
2018-09-25T15:37:36.429Z,63.40
2018-09-25T15:40:09.521Z,63.30
2018-09-25T15:42:42.815Z,63.50
2018-09-25T15:45:16.008Z,64.00
2018-09-25T15:47:49.151Z,63.30
2018-09-25T15:50:22.244Z,63.40
2018-09-25T15:52:55.454Z,63.30
2018-09-25T15:55:28.597Z,63.20
2018-09-25T15:58:04.726Z,63.20
2018-09-25T16:00:37.853Z,63.80
2018-09-25T16:03:11.772Z,63.50
2018-09-25T16:05:44.830Z,63.40
2018-09-25T16:08:17.908Z,63.20
2018-09-25T16:10:51.092Z,63.40
2018-09-25T16:13:24.881Z,63.30
2018-09-25T16:15:58.052Z,63.40
2018-09-25T16:18:32.524Z,63.40
2018-09-25T16:21:05.535Z,63.50
2018-09-25T16:23:38.630Z,63.50
2018-09-25T16:26:12.116Z,63.50
2018-09-25T16:28:46.277Z,63.50
2018-09-25T16:31:20.292Z,63.50
2018-09-25T16:33:53.413Z,64.00
2018-09-25T16:36:26.483Z,63.10
2018-09-25T16:38:59.564Z,63.10
2018-09-25T16:41:32.647Z,63.10
2018-09-25T16:44:05.748Z,63.10
2018-09-25T16:46:38.788Z,63.10
2018-09-25T16:49:11.880Z,62.90
2018-09-25T16:51:44.953Z,63.00
2018-09-25T16:54:18.191Z,63.10
2018-09-25T16:56:52.148Z,63.10
2018-09-25T16:59:25.300Z,63.20
2018-09-25T17:01:59.416Z,63.40
2018-09-25T17:04:32.872Z,63.20
2018-09-25T17:07:06.016Z,63.20
2018-09-25T17:09:39.937Z,63.30
2018-09-25T17:12:13.054Z,63.30
2018-09-25T17:14:46.112Z,64.20
2018-09-25T17:17:19.107Z,63.50
2018-09-25T17:19:52.272Z,63.50
2018-09-25T17:22:25.805Z,64.20
2018-09-25T17:25:00.780Z,63.50
2018-09-25T17:27:35.072Z,63.50
2018-09-25T17:30:08.335Z,63.50
2018-09-25T17:32:41.476Z,63.60
2018-09-25T17:35:14.620Z,63.80
2018-09-25T17:37:47.761Z,63.90
2018-09-25T17:40:20.979Z,63.80
2018-09-25T17:42:54.068Z,64.00
2018-09-25T17:45:27.260Z,63.90
2018-09-25T17:48:00.367Z,64.50
2018-09-25T17:50:34.391Z,63.70
2018-09-25T17:53:07.784Z,63.60
2018-09-25T17:55:42.133Z,63.50
2018-09-25T17:58:15.416Z,63.40
2018-09-25T18:00:48.604Z,63.10
2018-09-25T18:03:22.320Z,63.10
2018-09-25T18:05:56.009Z,62.90
2018-09-25T18:08:29.081Z,62.90
2018-09-25T18:11:04.107Z,62.90
2018-09-25T18:13:37.489Z,63.10
2018-09-25T18:16:12.082Z,63.20
2018-09-25T18:18:45.641Z,63.90
2018-09-25T18:21:18.837Z,63.10
2018-09-25T18:23:52.055Z,63.10
2018-09-25T18:26:25.387Z,63.20
2018-09-25T18:28:58.512Z,63.30
2018-09-25T18:31:33.316Z,64.10
2018-09-25T18:34:06.497Z,63.50
2018-09-25T18:36:39.622Z,63.50
2018-09-25T18:39:13.163Z,63.50
2018-09-25T18:41:47.600Z,63.50
2018-09-25T18:44:20.801Z,63.50
2018-09-25T18:46:53.928Z,63.50
2018-09-25T18:49:27.266Z,63.60
2018-09-25T18:52:00.432Z,63.90
2018-09-25T18:54:34.145Z,63.90
2018-09-25T18:57:07.405Z,63.80
2018-09-25T18:59:41.264Z,63.70
2018-09-25T19:02:14.344Z,63.70
2018-09-25T19:04:47.537Z,63.80
2018-09-25T19:07:20.748Z,63.70
2018-09-25T19:09:54.977Z,64.00
2018-09-25T19:12:28.105Z,64.10
2018-09-25T19:15:01.206Z,64.00
2018-09-25T19:17:35.348Z,63.90
2018-09-25T19:20:08.530Z,64.10
2018-09-25T19:22:41.953Z,64.10
2018-09-25T19:25:15.207Z,64.20
2018-09-25T19:27:48.515Z,64.50
2018-09-25T19:30:22.452Z,64.10
2018-09-25T19:32:55.580Z,64.20
2018-09-25T19:35:29.852Z,64.00
2018-09-25T19:38:03.097Z,64.20
2018-09-25T19:40:36.228Z,64.30
2018-09-25T19:43:10.971Z,64.00
2018-09-25T19:45:45.150Z,63.80
2018-09-25T19:48:19.518Z,63.60
2018-09-25T19:50:53.357Z,63.50
2018-09-25T19:53:27.294Z,63.50
2018-09-25T19:56:03.069Z,63.60
2018-09-25T19:58:36.650Z,64.30
2018-09-25T20:01:09.997Z,63.60
2018-09-25T20:03:44.448Z,63.50
2018-09-25T20:06:18.216Z,63.60
2018-09-25T20:08:52.562Z,63.70
2018-09-25T20:11:26.815Z,63.50
2018-09-25T20:14:00.028Z,63.90
2018-09-25T20:16:33.240Z,63.80
2018-09-25T20:19:06.436Z,63.80
2018-09-25T20:21:39.514Z,63.80
2018-09-25T20:24:12.630Z,63.60
2018-09-25T20:26:45.896Z,63.80
2018-09-25T20:29:19.099Z,63.90
2018-09-25T20:31:52.276Z,64.10
2018-09-25T20:34:25.400Z,64.10
2018-09-25T20:36:59.268Z,64.10
2018-09-25T20:39:32.556Z,64.00
2018-09-25T20:42:05.663Z,63.90
2018-09-25T20:44:38.924Z,63.90
2018-09-25T20:47:12.115Z,63.80
2018-09-25T20:49:45.369Z,64.10
2018-09-25T20:52:18.603Z,64.20
2018-09-25T20:54:51.804Z,64.10
2018-09-25T20:57:25.948Z,64.00
2018-09-25T20:59:59.111Z,63.90
2018-09-25T21:02:32.672Z,63.90
2018-09-25T21:05:05.795Z,64.00
2018-09-25T21:07:38.927Z,64.90
2018-09-25T21:10:12.092Z,64.20
2018-09-25T21:12:45.277Z,64.10
2018-09-25T21:15:18.508Z,64.00
2018-09-25T21:17:51.728Z,64.00
2018-09-25T21:20:25.551Z,64.00
2018-09-25T21:22:58.696Z,64.40
2018-09-25T21:25:32.005Z,64.20
2018-09-25T21:28:05.244Z,64.20
2018-09-25T21:30:38.404Z,64.10
2018-09-25T21:33:11.543Z,64.00
2018-09-25T21:35:45.893Z,63.90
2018-09-25T21:38:19.040Z,64.30
2018-09-25T21:40:52.268Z,64.50
2018-09-25T21:43:25.448Z,64.30
2018-09-25T21:45:59.321Z,64.10
2018-09-25T21:48:33.178Z,64.90
2018-09-25T21:51:07.205Z,63.90
2018-09-25T21:53:40.179Z,64.10
2018-09-25T21:56:14.055Z,63.80
2018-09-25T21:58:47.303Z,63.60
2018-09-25T22:01:21.196Z,63.60
2018-09-25T22:03:56.280Z,63.50
2018-09-25T22:06:30.124Z,63.70
2018-09-25T22:09:04.509Z,64.10
2018-09-25T22:11:37.586Z,63.80
2018-09-25T22:14:11.733Z,63.60
2018-09-25T22:16:45.861Z,63.60
2018-09-25T22:19:19.772Z,63.70
2018-09-25T22:21:52.880Z,63.70
2018-09-25T22:24:27.050Z,63.70
2018-09-25T22:27:00.238Z,63.90
2018-09-25T22:29:34.934Z,63.90
2018-09-25T22:32:08.171Z,63.80
2018-09-25T22:34:42.112Z,63.80
2018-09-25T22:37:16.076Z,63.90
2018-09-25T22:39:49.336Z,63.70
2018-09-25T22:42:23.313Z,63.80
2018-09-25T22:44:56.616Z,64.50
2018-09-25T22:47:30.765Z,64.00
2018-09-25T22:50:04.737Z,63.90
2018-09-25T22:52:38.252Z,63.90
2018-09-25T22:55:11.574Z,63.80
2018-09-25T22:57:44.839Z,63.70
2018-09-25T23:00:18.233Z,63.70
2018-09-25T23:02:52.280Z,63.70
2018-09-25T23:05:25.477Z,63.70
2018-09-25T23:07:58.622Z,63.60
2018-09-25T23:10:32.696Z,63.80
2018-09-25T23:13:06.955Z,63.70
2018-09-25T23:15:41.357Z,63.80
2018-09-25T23:18:14.480Z,63.70
2018-09-25T23:20:47.636Z,63.40
2018-09-25T23:23:21.869Z,63.40
2018-09-25T23:25:55.833Z,63.60
2018-09-25T23:28:28.928Z,63.90
2018-09-25T23:31:04.856Z,63.70
2018-09-25T23:33:37.881Z,63.70
2018-09-25T23:36:12.007Z,63.50
2018-09-25T23:38:46.263Z,63.30
2018-09-25T23:41:19.335Z,63.50
2018-09-25T23:44:02.589Z,63.60
2018-09-25T23:46:50.395Z,63.60
2018-09-25T23:49:23.747Z,63.40
2018-09-25T23:51:56.852Z,63.40
2018-09-25T23:55:29.701Z,63.00
2018-09-25T23:58:01.270Z,63.30
